Time;durP1;ratioP1;P1;durP2;ratioP2;P2;SDS_P1;SDS_P2;PMS_P1;PMS_P2;Temp;Humidity;BMP_temperature;BMP_pressure;BME280_temperature;BME280_humidity;BME280_pressure;Samples;Min_cycle;Max_cycle;Signal;HPM_P1;HPM_P2
2022/07/25 00:01:44;;;;;;;18.63;9.27;;;29.30;82.20;;;;;;5073024;28;20142;-71
2022/07/25 00:04:11;;;;;;;16.80;9.57;;;29.30;82.40;;;;;;5073138;28;20078;-72
2022/07/25 00:06:37;;;;;;;14.82;9.45;;;29.30;83.00;;;;;;5072881;28;20032;-71
2022/07/25 00:09:03;;;;;;;20.13;9.85;;;29.40;83.20;;;;;;5073069;28;20051;-71
2022/07/25 00:11:29;;;;;;;17.88;9.07;;;29.30;83.80;;;;;;5073234;28;20458;-71
2022/07/25 00:13:55;;;;;;;19.80;9.85;;;29.30;83.60;;;;;;5073043;28;20066;-71
2022/07/25 00:16:21;;;;;;;13.10;8.60;;;29.30;83.60;;;;;;5072600;28;20478;-72
2022/07/25 00:18:47;;;;;;;17.48;10.07;;;29.30;82.90;;;;;;5072765;28;20066;-72
2022/07/25 00:21:13;;;;;;;16.80;10.23;;;29.30;83.30;;;;;;5072789;28;20040;-71
2022/07/25 00:23:39;;;;;;;13.05;9.23;;;29.30;83.80;;;;;;5072916;28;20487;-71
2022/07/25 00:26:05;;;;;;;16.05;9.25;;;29.30;83.10;;;;;;5072772;28;20029;-71
2022/07/25 00:28:30;;;;;;;13.77;8.57;;;29.30;82.90;;;;;;5072679;28;20025;-71
2022/07/25 00:30:56;;;;;;;13.50;8.38;;;29.30;82.20;;;;;;5072450;28;20032;-71
2022/07/25 00:33:22;;;;;;;19.10;9.38;;;29.30;80.90;;;;;;5072581;28;20190;-71
2022/07/25 00:35:48;;;;;;;18.20;11.13;;;29.30;81.30;;;;;;5072674;28;20568;-71
2022/07/25 00:38:13;;;;;;;15.02;9.88;;;29.40;82.40;;;;;;5072651;28;20541;-72
2022/07/25 00:40:39;;;;;;;16.60;9.93;;;29.30;83.00;;;;;;5072667;28;20040;-71
2022/07/25 00:43:05;;;;;;;14.90;8.98;;;29.30;83.00;;;;;;5054480;28;20055;-72
2022/07/25 00:45:31;;;;;;;18.50;10.50;;;29.30;82.40;;;;;;5072416;28;20040;-72
2022/07/25 00:47:56;;;;;;;12.98;8.80;;;29.30;82.30;;;;;;5072446;28;20013;-71
2022/07/25 00:50:23;;;;;;;15.23;9.38;;;29.30;82.40;;;;;;5073184;28;20031;-71
2022/07/25 00:52:48;;;;;;;16.02;10.68;;;29.30;82.00;;;;;;5076443;28;20063;-71
2022/07/25 00:55:15;;;;;;;16.77;9.88;;;29.30;83.00;;;;;;5076717;28;20052;-71
2022/07/25 00:57:40;;;;;;;15.48;9.55;;;29.30;82.60;;;;;;5058373;28;20371;-70
2022/07/25 01:00:09;;;;;;;12.68;8.80;;;29.30;82.70;;;;;;5076265;28;20039;-71
2022/07/25 01:02:35;;;;;;;17.25;9.65;;;29.30;82.50;;;;;;5058353;28;20039;-72
2022/07/25 01:05:03;;;;;;;14.70;8.98;;;29.20;83.20;;;;;;5076320;28;20129;-72
2022/07/25 01:07:29;;;;;;;13.43;10.07;;;29.20;83.20;;;;;;5076209;28;20032;-71
2022/07/25 01:09:55;;;;;;;12.90;8.52;;;29.10;84.10;;;;;;5076304;28;20029;-72
2022/07/25 01:12:21;;;;;;;15.27;9.75;;;29.10;84.40;;;;;;5076142;28;20028;-71
2022/07/25 01:14:47;;;;;;;14.77;10.02;;;29.20;85.10;;;;;;5075701;28;20039;-71
2022/07/25 01:17:12;;;;;;;13.73;9.68;;;29.10;85.40;;;;;;5076043;28;20477;-72
2022/07/25 01:19:38;;;;;;;18.77;10.73;;;29.10;85.70;;;;;;5075753;28;20501;-71
2022/07/25 01:22:04;;;;;;;15.73;10.10;;;29.10;85.90;;;;;;5075819;28;20028;-71
2022/07/25 01:24:30;;;;;;;16.73;10.23;;;29.00;84.90;;;;;;5075766;28;20028;-71
2022/07/25 01:26:55;;;;;;;18.73;10.88;;;29.00;84.60;;;;;;5075786;28;20048;-76
2022/07/25 01:29:21;;;;;;;14.05;10.45;;;29.00;84.20;;;;;;5075958;28;20029;-77
2022/07/25 01:31:47;;;;;;;18.33;11.40;;;29.10;84.30;;;;;;5075886;28;20058;-75
2022/07/25 01:34:12;;;;;;;16.98;11.23;;;29.00;84.30;;;;;;5057915;28;20024;-75
2022/07/25 01:36:38;;;;;;;16.75;11.65;;;29.00;84.00;;;;;;5075766;28;20039;-75
2022/07/25 01:39:04;;;;;;;13.60;10.70;;;29.00;84.10;;;;;;5075719;28;20029;-75
2022/07/25 01:41:30;;;;;;;20.63;11.82;;;28.90;84.30;;;;;;5075669;28;20030;-75
2022/07/25 01:43:56;;;;;;;15.23;11.98;;;28.90;84.50;;;;;;5075988;28;20039;-75
2022/07/25 01:46:22;;;;;;;14.30;10.43;;;28.90;84.50;;;;;;5077175;28;20169;-75
2022/07/25 01:48:47;;;;;;;16.63;11.55;;;28.90;84.30;;;;;;5076590;28;20025;-76
2022/07/25 01:51:13;;;;;;;25.27;12.48;;;28.80;84.10;;;;;;5075490;28;20020;-76
2022/07/25 01:53:39;;;;;;;15.63;11.68;;;28.80;84.00;;;;;;5075557;28;20103;-76
2022/07/25 01:56:05;;;;;;;19.55;13.23;;;28.80;83.80;;;;;;5075306;28;20563;-76
2022/07/25 01:58:31;;;;;;;19.15;13.07;;;28.70;84.00;;;;;;5075542;28;20083;-76
2022/07/25 02:00:57;;;;;;;19.00;12.80;;;28.70;84.40;;;;;;5056867;28;20033;-76
2022/07/25 02:03:29;;;;;;;21.15;13.73;;;28.70;84.30;;;;;;5075250;28;20032;-77
2022/07/25 02:05:55;;;;;;;22.27;12.80;;;28.70;84.80;;;;;;5058251;28;20389;-77
2022/07/25 02:08:22;;;;;;;18.17;12.63;;;28.70;84.20;;;;;;5076071;28;20462;-77
2022/07/25 02:10:47;;;;;;;18.13;13.50;;;28.60;84.10;;;;;;5075201;28;20020;-75
2022/07/25 02:13:13;;;;;;;17.33;12.38;;;28.60;84.30;;;;;;5075103;28;20044;-75
2022/07/25 02:15:39;;;;;;;17.58;13.10;;;28.60;84.20;;;;;;5056783;28;20074;-75
2022/07/25 02:18:07;;;;;;;18.17;12.63;;;28.60;84.20;;;;;;5075015;28;20032;-76
2022/07/25 02:20:32;;;;;;;21.60;12.18;;;28.60;84.10;;;;;;5074774;28;20474;-76
2022/07/25 02:22:58;;;;;;;16.80;11.65;;;28.60;83.90;;;;;;5074942;28;20070;-76
2022/07/25 02:25:24;;;;;;;17.38;11.93;;;28.50;84.00;;;;;;5074996;28;20020;-76
2022/07/25 02:27:50;;;;;;;18.55;12.38;;;28.50;84.00;;;;;;5074917;28;20112;-76
2022/07/25 02:30:15;;;;;;;19.08;11.73;;;28.50;83.90;;;;;;5074858;28;20031;-75
2022/07/25 02:32:41;;;;;;;18.15;11.25;;;28.50;84.20;;;;;;5074613;28;20035;-75
2022/07/25 02:35:07;;;;;;;15.40;11.55;;;28.50;83.90;;;;;;5074666;28;20027;-76
2022/07/25 02:37:33;;;;;;;18.10;11.65;;;28.40;84.10;;;;;;5074675;28;20021;-76
2022/07/25 02:40:00;;;;;;;20.45;11.55;;;28.40;84.10;;;;;;5074509;28;20085;-75
2022/07/25 02:42:25;;;;;;;19.90;11.23;;;28.30;84.50;;;;;;5056750;28;20359;-76
2022/07/25 02:44:51;;;;;;;17.35;11.15;;;28.40;84.10;;;;;;5074059;28;20034;-77
2022/07/25 02:47:17;;;;;;;13.30;10.18;;;28.30;83.80;;;;;;5074332;28;20035;-76
2022/07/25 02:49:43;;;;;;;17.30;10.98;;;28.40;83.60;;;;;;5074350;28;20024;-76
2022/07/25 02:52:08;;;;;;;17.65;10.27;;;28.40;83.40;;;;;;5074663;28;20017;-75
2022/07/25 02:54:34;;;;;;;15.02;10.13;;;28.40;83.40;;;;;;5074285;28;20077;-77
2022/07/25 02:57:01;;;;;;;21.90;10.38;;;28.40;83.10;;;;;;5074110;28;20045;-76
2022/07/25 02:59:27;;;;;;;14.68;10.00;;;28.30;83.30;;;;;;5074150;28;20024;-75
2022/07/25 03:01:52;;;;;;;16.50;9.68;;;28.20;83.00;;;;;;5074024;28;20450;-76
2022/07/25 03:04:18;;;;;;;12.95;8.82;;;28.20;83.00;;;;;;5056228;28;20074;-77
2022/07/25 03:06:44;;;;;;;14.75;9.68;;;28.20;82.70;;;;;;5074150;28;20086;-76
2022/07/25 03:09:09;;;;;;;18.40;9.30;;;28.10;82.20;;;;;;5073967;28;20481;-76
2022/07/25 03:11:35;;;;;;;16.80;9.10;;;28.10;81.80;;;;;;5073946;28;20095;-75
2022/07/25 03:14:01;;;;;;;13.30;8.60;;;28.10;81.40;;;;;;5073068;28;20131;-75
2022/07/25 03:16:26;;;;;;;14.70;8.70;;;28.00;81.00;;;;;;5073653;28;20035;-75
2022/07/25 03:18:52;;;;;;;11.73;8.13;;;28.00;80.80;;;;;;5073869;28;20021;-76
2022/07/25 03:21:18;;;;;;;16.30;9.27;;;28.00;80.50;;;;;;5055733;28;20040;-76
2022/07/25 03:23:44;;;;;;;13.07;8.52;;;28.00;80.10;;;;;;5073879;28;20020;-76
2022/07/25 03:26:09;;;;;;;19.40;8.40;;;28.00;79.90;;;;;;5073726;28;20024;-76
2022/07/25 03:28:35;;;;;;;20.88;9.30;;;28.00;80.30;;;;;;5073806;28;20377;-76
2022/07/25 03:31:01;;;;;;;13.48;8.93;;;27.90;79.00;;;;;;5073640;28;20032;-76
2022/07/25 03:33:27;;;;;;;16.08;9.18;;;27.90;79.00;;;;;;5073396;28;20025;-77
2022/07/25 03:35:52;;;;;;;22.85;9.20;;;27.90;79.00;;;;;;5073460;28;20436;-78
2022/07/25 03:38:18;;;;;;;14.05;9.13;;;27.80;79.60;;;;;;5055688;28;20022;-77
2022/07/25 03:40:44;;;;;;;13.02;8.40;;;27.80;78.70;;;;;;5074775;28;20033;-78
2022/07/25 03:43:09;;;;;;;13.68;9.48;;;27.80;78.60;;;;;;5075025;28;20078;-76
2022/07/25 03:45:35;;;;;;;12.65;8.35;;;27.80;78.60;;;;;;5073241;28;20028;-77
2022/07/25 03:48:01;;;;;;;16.58;8.80;;;27.80;78.30;;;;;;5073313;28;20047;-75
2022/07/25 03:50:27;;;;;;;13.40;8.40;;;27.90;78.50;;;;;;5055418;28;20041;-77
2022/07/25 03:52:52;;;;;;;15.73;8.90;;;27.90;78.30;;;;;;5073424;28;20024;-75
2022/07/25 03:55:18;;;;;;;19.23;9.52;;;27.90;78.20;;;;;;5073520;28;20032;-75
2022/07/25 03:57:44;;;;;;;18.15;8.70;;;27.80;77.80;;;;;;5073256;28;20029;-75
2022/07/25 04:00:11;;;;;;;13.30;8.45;;;27.80;77.80;;;;;;5072968;28;20044;-76
2022/07/25 04:02:37;;;;;;;21.48;8.77;;;27.80;77.50;;;;;;5073068;28;20058;-75
2022/07/25 04:05:04;;;;;;;15.68;8.23;;;27.90;77.30;;;;;;5075332;28;20025;-76
2022/07/25 04:07:31;;;;;;;14.35;8.13;;;27.80;77.10;;;;;;5081358;28;20082;-75
2022/07/25 04:09:57;;;;;;;12.55;7.70;;;27.80;76.40;;;;;;5074261;28;20028;-76
2022/07/25 04:12:23;;;;;;;16.63;8.88;;;27.80;77.60;;;;;;5073384;28;20025;-76
2022/07/25 04:14:49;;;;;;;20.77;9.02;;;27.70;77.40;;;;;;5073526;28;20038;-77
2022/07/25 04:17:15;;;;;;;14.88;8.63;;;27.70;77.70;;;;;;5073523;28;20024;-76
2022/07/25 04:19:42;;;;;;;18.63;8.75;;;27.80;77.70;;;;;;5073044;28;20082;-76
2022/07/25 04:22:08;;;;;;;16.33;8.52;;;27.80;76.60;;;;;;5073041;28;20054;-76
2022/07/25 04:24:34;;;;;;;15.48;8.88;;;27.70;77.60;;;;;;5072645;28;20127;-76
2022/07/25 04:26:59;;;;;;;14.70;8.27;;;27.80;77.70;;;;;;5072849;28;20020;-76
2022/07/25 04:29:25;;;;;;;14.00;8.40;;;27.80;77.70;;;;;;5072874;28;20081;-75
2022/07/25 04:31:51;;;;;;;14.23;8.40;;;27.80;77.60;;;;;;5073160;28;20024;-75
2022/07/25 04:34:16;;;;;;;15.95;8.43;;;27.80;77.30;;;;;;5072894;28;20410;-76
2022/07/25 04:36:42;;;;;;;16.58;8.90;;;27.80;77.20;;;;;;5072599;28;20554;-76
2022/07/25 04:39:08;;;;;;;16.38;8.38;;;27.80;76.90;;;;;;5073038;28;20493;-77
2022/07/25 04:41:33;;;;;;;13.35;7.78;;;27.80;76.70;;;;;;5072817;28;20028;-75
2022/07/25 04:44:00;;;;;;;14.88;8.48;;;27.70;76.40;;;;;;5072668;28;20327;-75
2022/07/25 04:46:26;;;;;;;13.45;8.95;;;27.70;76.40;;;;;;5072667;28;20082;-77
2022/07/25 04:48:52;;;;;;;12.55;8.55;;;27.70;76.60;;;;;;5072946;28;20033;-76
2022/07/25 04:51:18;;;;;;;14.48;8.48;;;27.70;76.30;;;;;;5072865;28;20030;-77
2022/07/25 04:53:44;;;;;;;15.65;8.00;;;27.80;76.00;;;;;;5072787;28;20107;-75
2022/07/25 04:56:10;;;;;;;15.88;8.43;;;27.70;76.20;;;;;;5072812;28;20093;-81
2022/07/25 04:58:36;;;;;;;12.40;8.13;;;27.80;76.20;;;;;;5072779;28;20120;-77
2022/07/25 05:01:01;;;;;;;15.75;8.23;;;27.80;75.80;;;;;;5072953;28;20071;-77
2022/07/25 05:03:27;;;;;;;15.40;8.88;;;27.90;75.50;;;;;;5072560;28;20504;-76
2022/07/25 05:05:53;;;;;;;13.13;7.63;;;27.90;74.70;;;;;;5072334;28;20048;-76
2022/07/25 05:08:18;;;;;;;11.75;7.95;;;27.90;74.30;;;;;;5071997;28;20453;-77
2022/07/25 05:10:44;;;;;;;14.77;8.15;;;27.90;74.00;;;;;;5072538;28;20032;-75
2022/07/25 05:13:10;;;;;;;15.60;7.18;;;27.90;73.60;;;;;;5072141;28;20028;-76
2022/07/25 05:15:35;;;;;;;16.35;8.02;;;27.80;73.50;;;;;;5072219;28;20492;-77
2022/07/25 05:18:01;;;;;;;10.98;7.60;;;27.80;73.50;;;;;;5054270;28;20166;-76
2022/07/25 05:20:28;;;;;;;13.57;7.70;;;27.90;73.30;;;;;;5072097;28;20100;-78
2022/07/25 05:22:53;;;;;;;12.45;8.68;;;28.00;73.10;;;;;;5072249;28;20498;-75
2022/07/25 05:25:19;;;;;;;12.52;7.88;;;28.20;72.60;;;;;;5054071;28;20111;-77
2022/07/25 05:27:45;;;;;;;16.38;8.65;;;28.40;72.00;;;;;;5072104;28;20032;-76
2022/07/25 05:30:13;;;;;;;20.20;7.65;;;28.60;71.20;;;;;;5072233;28;20028;-76
2022/07/25 05:32:39;;;;;;;12.70;7.60;;;28.90;70.90;;;;;;5072278;28;20024;-78
2022/07/25 05:35:07;;;;;;;12.68;8.23;;;29.10;70.10;;;;;;5072131;28;20457;-78
2022/07/25 05:37:34;;;;;;;19.45;8.32;;;29.40;69.40;;;;;;5074318;28;20029;-77
2022/07/25 05:39:59;;;;;;;16.30;7.57;;;29.70;68.40;;;;;;5075318;28;20050;-76
2022/07/25 05:42:25;;;;;;;16.85;8.32;;;30.00;67.40;;;;;;5076103;28;20514;-79
2022/07/25 05:44:51;;;;;;;21.23;8.23;;;30.30;66.60;;;;;;5076087;28;20104;-80
2022/07/25 05:47:17;;;;;;;17.13;7.75;;;30.50;66.00;;;;;;5068513;28;20099;-80
2022/07/25 05:49:43;;;;;;;15.95;7.60;;;30.80;65.30;;;;;;5075722;28;20034;-78
2022/07/25 05:52:09;;;;;;;14.80;7.45;;;31.20;64.50;;;;;;5067294;28;20075;-77
2022/07/25 05:54:35;;;;;;;14.25;7.22;;;31.40;63.30;;;;;;5069045;28;20020;-78
2022/07/25 05:57:01;;;;;;;13.85;7.13;;;31.50;63.00;;;;;;5064686;28;20049;-74
2022/07/25 05:59:27;;;;;;;13.48;7.38;;;31.70;62.30;;;;;;5068300;28;20021;-74
2022/07/25 06:01:52;;;;;;;15.55;7.40;;;32.00;61.50;;;;;;5075042;28;20036;-74
2022/07/25 06:04:18;;;;;;;18.40;7.80;;;32.10;60.90;;;;;;5074921;28;20020;-74
2022/07/25 06:06:49;;;;;;;38.40;9.93;;;32.40;59.80;;;;;;5069170;28;20038;-72
2022/07/25 06:09:16;;;;;;;75.47;14.07;;;32.60;59.50;;;;;;5075090;28;20029;-72
2022/07/25 06:11:42;;;;;;;45.75;9.23;;;32.80;59.50;;;;;;5075127;28;20028;-71
2022/07/25 06:14:08;;;;;;;13.82;7.82;;;32.90;59.00;;;;;;5075347;28;20378;-71
2022/07/25 06:16:33;;;;;;;14.10;7.47;;;33.00;58.70;;;;;;5074662;28;20012;-72
2022/07/25 06:18:59;;;;;;;15.05;6.97;;;32.80;58.70;;;;;;5069655;28;20052;-71
2022/07/25 06:21:25;;;;;;;15.00;6.95;;;32.90;58.80;;;;;;5054610;28;20454;-71
2022/07/25 06:23:50;;;;;;;14.73;6.68;;;33.00;58.30;;;;;;5062596;28;20424;-70
2022/07/25 06:26:17;;;;;;;19.55;7.18;;;33.20;58.10;;;;;;5072430;28;20111;-71
2022/07/25 06:28:42;;;;;;;15.98;6.88;;;33.20;57.90;;;;;;5065735;28;20486;-71
2022/07/25 06:31:08;;;;;;;20.08;6.95;;;33.20;57.50;;;;;;5063666;28;20082;-69
2022/07/25 06:33:34;;;;;;;15.45;7.30;;;33.30;57.70;;;;;;5066191;28;20028;-72
2022/07/25 06:35:59;;;;;;;22.00;7.60;;;33.30;57.70;;;;;;5056711;28;20040;-72
2022/07/25 06:38:25;;;;;;;31.45;9.27;;;33.30;57.60;;;;;;5074639;28;20023;-69
2022/07/25 06:40:51;;;;;;;19.27;7.32;;;33.60;57.50;;;;;;5074550;28;20334;-71
2022/07/25 06:43:16;;;;;;;12.70;6.50;;;33.70;57.00;;;;;;5071553;28;20033;-71
2022/07/25 06:45:46;;;;;;;14.00;7.05;;;33.90;57.30;;;;;;5071131;28;20434;-72
2022/07/25 06:48:13;;;;;;;16.08;6.90;;;33.80;56.90;;;;;;5072989;28;20031;-72
2022/07/25 06:50:39;;;;;;;17.17;6.65;;;33.90;56.40;;;;;;5074259;28;20024;-71
2022/07/25 06:53:04;;;;;;;10.77;6.45;;;34.00;55.90;;;;;;5074355;28;20377;-72
2022/07/25 06:55:31;;;;;;;16.08;6.50;;;34.10;55.10;;;;;;5073798;28;20074;-72
2022/07/25 06:57:57;;;;;;;13.63;6.18;;;34.00;54.30;;;;;;5073651;28;20056;-70
2022/07/25 07:00:23;;;;;;;13.77;6.93;;;34.20;54.60;;;;;;5073801;28;20118;-70
2022/07/25 07:02:57;;;;;;;17.67;6.80;;;34.40;54.30;;;;;;5074176;28;20504;-70
2022/07/25 07:05:24;;;;;;;20.15;7.07;;;34.50;52.90;;;;;;5073568;28;20445;-71
2022/07/25 07:07:50;;;;;;;16.83;6.85;;;34.50;53.50;;;;;;5073800;28;20448;-71
2022/07/25 07:10:16;;;;;;;20.52;6.63;;;34.50;53.40;;;;;;5073816;28;20020;-73
2022/07/25 07:12:43;;;;;;;15.05;6.70;;;34.60;54.00;;;;;;5074166;28;20032;-72
2022/07/25 07:15:09;;;;;;;15.20;6.95;;;34.80;52.80;;;;;;5073535;28;20016;-70
2022/07/25 07:17:35;;;;;;;10.85;6.13;;;34.80;52.40;;;;;;5073741;28;20028;-68
2022/07/25 07:20:01;;;;;;;22.73;7.32;;;34.50;52.00;;;;;;5055703;28;20047;-72
2022/07/25 07:22:27;;;;;;;16.10;6.80;;;34.50;52.40;;;;;;5073405;28;20027;-71
2022/07/25 07:24:53;;;;;;;19.77;6.43;;;34.50;52.00;;;;;;5073459;28;20369;-69
2022/07/25 07:27:18;;;;;;;19.27;5.80;;;34.60;52.10;;;;;;5073799;28;20028;-69
2022/07/25 07:29:44;;;;;;;14.85;6.82;;;34.80;51.90;;;;;;5073281;28;20481;-69
2022/07/25 07:32:10;;;;;;;13.30;6.22;;;34.90;51.80;;;;;;5073585;28;20032;-71
2022/07/25 07:34:36;;;;;;;14.07;5.95;;;35.10;51.30;;;;;;5073329;28;20042;-69
2022/07/25 07:37:02;;;;;;;16.20;6.13;;;35.20;50.80;;;;;;5073165;28;20021;-70
2022/07/25 07:39:28;;;;;;;10.32;5.47;;;35.30;50.40;;;;;;5073789;28;20377;-70
2022/07/25 07:41:53;;;;;;;11.32;5.82;;;35.30;50.50;;;;;;5073038;28;20044;-71
2022/07/25 07:44:19;;;;;;;13.98;5.70;;;35.30;49.80;;;;;;5073340;28;20426;-70
2022/07/25 07:46:45;;;;;;;14.23;5.75;;;35.40;49.20;;;;;;5072974;28;20028;-70
2022/07/25 07:49:10;;;;;;;16.55;6.43;;;35.40;49.20;;;;;;5072837;28;20021;-70
2022/07/25 07:51:36;;;;;;;11.52;5.70;;;35.20;48.50;;;;;;5072995;28;20477;-71
2022/07/25 07:56:46;;;;;;;19.33;6.40;;;35.30;48.60;;;;;;5072542;28;20111;-70
2022/07/25 07:59:12;;;;;;;16.13;5.50;;;35.30;48.40;;;;;;5072313;28;20448;-70
2022/07/25 08:01:37;;;;;;;14.35;5.78;;;35.20;48.60;;;;;;5072596;28;20063;-71
2022/07/25 08:04:03;;;;;;;20.45;7.32;;;35.10;48.60;;;;;;5072819;28;20409;-71
2022/07/25 08:06:29;;;;;;;17.10;6.47;;;34.90;48.60;;;;;;5072573;28;20036;-69
2022/07/25 08:08:55;;;;;;;14.63;6.40;;;34.80;49.10;;;;;;5072831;28;20040;-72
2022/07/25 08:11:21;;;;;;;11.88;5.80;;;34.80;49.00;;;;;;5072667;28;20032;-70
2022/07/25 08:13:46;;;;;;;13.98;6.40;;;34.80;48.90;;;;;;5072582;28;20074;-69
2022/07/25 08:16:12;;;;;;;16.33;6.05;;;34.70;48.90;;;;;;5073076;28;20149;-73
2022/07/25 08:18:38;;;;;;;13.98;5.78;;;34.70;49.10;;;;;;5072341;28;20048;-70
2022/07/25 08:21:05;;;;;;;13.65;5.93;;;34.70;49.10;;;;;;5054498;28;20485;-73
2022/07/25 08:23:37;;;;;;;12.07;5.55;;;34.70;48.70;;;;;;5072229;28;20489;-73
2022/07/25 08:26:03;;;;;;;18.50;6.13;;;34.60;48.40;;;;;;5072230;28;20048;-72
2022/07/25 08:28:29;;;;;;;13.75;6.18;;;34.60;48.90;;;;;;5072556;28;20389;-69
2022/07/25 08:30:55;;;;;;;19.02;6.72;;;34.60;49.10;;;;;;5072221;28;20465;-71
2022/07/25 08:33:20;;;;;;;16.92;6.43;;;34.50;49.40;;;;;;5072278;28;20060;-71
2022/07/25 08:35:52;;;;;;;16.95;7.13;;;34.50;49.30;;;;;;5072199;28;20055;-73
2022/07/25 08:38:21;;;;;;;16.15;5.93;;;34.30;49.80;;;;;;5072419;28;20040;-70
2022/07/25 08:40:47;;;;;;;13.60;6.60;;;34.20;49.50;;;;;;5072265;28;20488;-69
2022/07/25 08:43:14;;;;;;;12.88;6.25;;;34.10;49.70;;;;;;5055399;28;20028;-72
2022/07/25 08:45:46;;;;;;;15.02;6.65;;;34.10;49.90;;;;;;5073394;28;20025;-70
2022/07/25 08:48:13;;;;;;;17.77;6.90;;;34.10;49.80;;;;;;5036879;28;20043;-70
2022/07/25 08:50:38;;;;;;;13.43;6.13;;;33.90;49.90;;;;;;5071738;28;20553;-71
2022/07/25 08:53:04;;;;;;;10.07;5.72;;;33.80;50.40;;;;;;5072395;28;20135;-70
2022/07/25 08:55:30;;;;;;;14.75;7.88;;;33.80;51.30;;;;;;5072207;28;20499;-71
2022/07/25 08:57:56;;;;;;;13.82;6.57;;;33.80;50.60;;;;;;5072226;28;20090;-71
2022/07/25 09:00:25;;;;;;;11.23;6.25;;;33.90;50.50;;;;;;5071697;28;20029;-72
2022/07/25 09:02:56;;;;;;;13.57;5.65;;;33.90;50.80;;;;;;5072146;28;20038;-70
2022/07/25 09:05:24;;;;;;;16.45;6.18;;;34.00;50.30;;;;;;5071886;28;20027;-71
2022/07/25 09:07:50;;;;;;;15.73;6.20;;;33.90;51.70;;;;;;5071819;28;20024;-72
2022/07/25 09:10:17;;;;;;;18.63;6.20;;;33.90;50.40;;;;;;5071939;28;20028;-70
2022/07/25 09:12:56;;;;;;;12.75;6.07;;;34.00;50.20;;;;;;5074653;28;20109;-70
2022/07/25 09:15:26;;;;;;;20.20;6.38;;;34.00;49.50;;;;;;5075699;28;20028;-70
2022/07/25 09:17:52;;;;;;;15.20;5.88;;;34.00;49.70;;;;;;5076005;28;20032;-69
2022/07/25 09:20:20;;;;;;;21.58;7.07;;;34.00;49.90;;;;;;5075770;28;20055;-70
2022/07/25 09:22:45;;;;;;;17.77;6.68;;;34.00;50.40;;;;;;5075738;28;20046;-69
2022/07/25 09:25:28;;;;;;;11.80;6.28;;;34.00;50.50;;;;;;5075766;28;20046;-70
2022/07/25 09:27:55;;;;;;;13.02;6.57;;;33.90;50.10;;;;;;5075739;28;20134;-70
2022/07/25 09:30:22;;;;;;;11.73;6.55;;;33.90;50.10;;;;;;5075784;28;20037;-69
2022/07/25 09:32:59;;;;;;;14.40;6.45;;;34.00;50.20;;;;;;5075268;28;20118;-70
2022/07/25 09:35:34;;;;;;;13.55;6.03;;;34.00;49.90;;;;;;5075373;28;20441;-70
2022/07/25 09:38:11;;;;;;;14.90;6.03;;;34.00;49.80;;;;;;5075476;28;20043;-70
2022/07/25 09:40:38;;;;;;;14.52;6.07;;;34.00;49.40;;;;;;5075554;28;20385;-70
2022/07/25 09:43:04;;;;;;;12.65;6.45;;;34.00;49.40;;;;;;5075387;28;20096;-69
2022/07/25 09:45:30;;;;;;;9.45;6.32;;;33.90;49.20;;;;;;5075314;28;20031;-69
2022/07/25 09:48:01;;;;;;;11.30;5.55;;;33.90;49.10;;;;;;5075555;28;20028;-70
2022/07/25 09:50:30;;;;;;;12.45;6.22;;;33.90;48.60;;;;;;5074939;28;20089;-70
2022/07/25 09:52:59;;;;;;;16.10;6.60;;;33.90;49.10;;;;;;5075695;28;20017;-70
2022/07/25 09:55:25;;;;;;;13.02;5.63;;;34.00;49.00;;;;;;5074950;28;20166;-70
2022/07/25 09:57:53;;;;;;;21.08;6.88;;;34.10;48.90;;;;;;5075351;28;20115;-70
2022/07/25 10:00:22;;;;;;;22.52;6.93;;;34.10;48.10;;;;;;5056988;28;20055;-72
2022/07/25 10:03:04;;;;;;;18.95;7.07;;;34.10;48.00;;;;;;5075069;28;20547;-69
2022/07/25 10:05:56;;;;;;;14.52;6.40;;;34.20;47.80;;;;;;5075383;28;20056;-71
2022/07/25 10:08:23;;;;;;;18.83;7.07;;;34.30;47.50;;;;;;5075318;28;20024;-70
2022/07/25 10:10:49;;;;;;;12.15;6.85;;;34.30;48.00;;;;;;5074834;28;20490;-71
2022/07/25 10:13:27;;;;;;;14.30;7.00;;;34.30;48.00;;;;;;5074756;28;20021;-69
2022/07/25 10:15:53;;;;;;;13.15;6.95;;;34.30;48.40;;;;;;5074884;28;20500;-70
2022/07/25 10:18:23;;;;;;;10.13;6.38;;;34.30;48.70;;;;;;5074873;28;20027;-70
2022/07/25 10:20:51;;;;;;;12.80;7.35;;;34.40;48.80;;;;;;5074676;28;20032;-72
2022/07/25 10:23:23;;;;;;;41.28;11.07;;;34.50;48.70;;;;;;5074584;28;20017;-69
2022/07/25 10:26:15;;;;;;;19.98;8.02;;;34.60;48.40;;;;;;5074316;28;20048;-69
2022/07/25 10:28:46;;;;;;;12.13;6.95;;;34.70;47.60;;;;;;5074859;28;20024;-71
2022/07/25 10:31:25;;;;;;;12.27;6.78;;;34.80;47.90;;;;;;5074659;28;20025;-70
2022/07/25 10:33:54;;;;;;;12.32;6.95;;;34.80;47.70;;;;;;5074504;28;20035;-70
2022/07/25 10:36:21;;;;;;;15.35;7.28;;;34.90;47.20;;;;;;5074500;28;20032;-69
2022/07/25 10:38:49;;;;;;;20.42;7.10;;;34.90;46.80;;;;;;5074136;28;20533;-71
2022/07/25 10:41:15;;;;;;;13.55;7.15;;;35.00;46.60;;;;;;5074525;28;20465;-69
2022/07/25 10:43:44;;;;;;;13.75;7.35;;;34.90;46.70;;;;;;5074362;28;20028;-70
2022/07/25 10:46:13;;;;;;;17.08;7.28;;;34.90;46.90;;;;;;5074053;28;20054;-69
2022/07/25 10:48:38;;;;;;;16.17;7.68;;;34.90;47.10;;;;;;5074017;28;20056;-70
2022/07/25 10:51:11;;;;;;;16.10;6.78;;;35.00;49.10;;;;;;5073993;28;20398;-70
2022/07/25 10:53:47;;;;;;;13.53;7.60;;;35.10;50.40;;;;;;5056078;28;20028;-71
2022/07/25 10:56:21;;;;;;;28.50;9.55;;;35.10;50.40;;;;;;5075968;28;20044;-72
2022/07/25 10:59:00;;;;;;;81.05;14.68;;;35.20;50.80;;;;;;5079781;28;20074;-70
2022/07/25 11:01:31;;;;;;;17.63;8.30;;;35.20;51.50;;;;;;5058137;28;20044;-72
2022/07/25 11:04:03;;;;;;;14.63;7.80;;;35.20;52.20;;;;;;5074365;28;20017;-72
2022/07/25 11:06:30;;;;;;;29.27;9.97;;;35.30;52.00;;;;;;5073998;28;20025;-70
2022/07/25 11:08:56;;;;;;;26.35;9.52;;;35.30;52.70;;;;;;5074002;28;20343;-70
2022/07/25 11:11:32;;;;;;;13.65;7.97;;;35.30;52.60;;;;;;5073442;28;20035;-70
2022/07/25 11:13:59;;;;;;;15.70;9.30;;;35.30;52.80;;;;;;5073645;28;20424;-69
2022/07/25 11:16:26;;;;;;;16.52;8.50;;;35.30;52.90;;;;;;5073697;28;20020;-69
2022/07/25 11:18:53;;;;;;;17.15;8.10;;;35.40;52.80;;;;;;5073874;28;20059;-70
2022/07/25 11:21:21;;;;;;;17.77;8.77;;;35.40;52.70;;;;;;5073854;28;20044;-71
2022/07/25 11:23:51;;;;;;;16.33;8.95;;;35.50;52.60;;;;;;5073986;28;20028;-71
2022/07/25 11:26:17;;;;;;;19.88;8.75;;;35.60;53.00;;;;;;5074280;28;20101;-70
2022/07/25 11:28:47;;;;;;;12.98;8.30;;;35.60;53.00;;;;;;5073529;28;20025;-69
2022/07/25 11:31:15;;;;;;;15.88;8.32;;;35.60;52.70;;;;;;5073819;28;20045;-69
2022/07/25 11:33:45;;;;;;;15.93;8.68;;;35.60;53.30;;;;;;5073362;28;20024;-70
2022/07/25 11:36:11;;;;;;;15.07;8.18;;;35.60;53.40;;;;;;5073258;28;20127;-69
2022/07/25 11:38:39;;;;;;;13.90;8.10;;;35.60;53.20;;;;;;5073674;28;20025;-71
2022/07/25 11:41:05;;;;;;;12.90;8.20;;;35.70;52.90;;;;;;5073501;28;20119;-70
2022/07/25 11:43:31;;;;;;;16.70;8.27;;;35.70;52.60;;;;;;5073583;28;20017;-70
2022/07/25 11:46:00;;;;;;;15.38;8.35;;;35.70;52.30;;;;;;5073296;28;20108;-71
2022/07/25 11:48:32;;;;;;;15.85;8.07;;;35.70;52.20;;;;;;5073430;28;20025;-70
2022/07/25 11:51:07;;;;;;;12.90;8.27;;;35.70;52.20;;;;;;5073389;28;20028;-70
2022/07/25 11:53:42;;;;;;;11.93;7.40;;;35.70;52.20;;;;;;5073153;28;20049;-71
2022/07/25 11:56:13;;;;;;;18.90;7.93;;;35.70;51.40;;;;;;5073220;28;20051;-69
2022/07/25 11:58:39;;;;;;;13.88;7.35;;;35.70;51.80;;;;;;5073184;28;20052;-70
2022/07/25 12:01:12;;;;;;;17.48;8.18;;;35.80;51.40;;;;;;5072920;28;20440;-70
2022/07/25 12:03:37;;;;;;;14.88;7.28;;;35.80;51.20;;;;;;5073209;28;20032;-70
2022/07/25 12:06:11;;;;;;;16.00;7.22;;;35.90;50.80;;;;;;5072910;28;20031;-70
2022/07/25 12:08:41;;;;;;;23.58;7.97;;;35.90;50.80;;;;;;5072795;28;20123;-72
2022/07/25 12:11:17;;;;;;;16.00;7.40;;;35.90;50.20;;;;;;5072971;28;20032;-69
2022/07/25 12:13:43;;;;;;;14.60;7.07;;;36.00;49.60;;;;;;5072633;28;20074;-70
2022/07/25 12:16:09;;;;;;;13.57;7.22;;;36.10;49.10;;;;;;5072494;28;20024;-70
2022/07/25 12:18:37;;;;;;;14.30;6.85;;;36.10;48.80;;;;;;5072788;28;20065;-71
2022/07/25 12:21:03;;;;;;;13.63;6.68;;;36.10;48.70;;;;;;5072782;28;20036;-71
2022/07/25 12:23:28;;;;;;;10.98;6.68;;;36.10;48.60;;;;;;5072790;28;20035;-71
2022/07/25 12:25:54;;;;;;;12.65;6.47;;;36.10;48.40;;;;;;5072583;28;20081;-72
2022/07/25 12:28:20;;;;;;;13.63;6.25;;;36.10;48.30;;;;;;5072711;28;20020;-72
2022/07/25 12:30:47;;;;;;;15.48;6.95;;;36.10;48.00;;;;;;5072545;28;20476;-73
2022/07/25 12:33:13;;;;;;;11.00;6.05;;;36.20;47.90;;;;;;5072594;28;20082;-70
2022/07/25 12:35:40;;;;;;;10.88;6.22;;;36.30;47.50;;;;;;5072325;28;20387;-72
2022/07/25 12:38:06;;;;;;;13.55;6.95;;;36.20;47.50;;;;;;5072462;28;20032;-71